createdAt,value
2023-01-23T05:41:11.588Z,99269.41
2023-01-23T05:46:13.397Z,99273.06
2023-01-23T05:51:15.221Z,99285.13
2023-01-23T05:56:16.983Z,99295.09
2023-01-23T06:01:18.836Z,99300.81
2023-01-23T06:06:20.388Z,99281.03
2023-01-23T06:11:22.002Z,99274.66
2023-01-23T06:16:23.587Z,99316.59
2023-01-23T06:21:25.215Z,99311.63
2023-01-23T06:26:30.050Z,99311.91
2023-01-23T06:31:32.763Z,99338.38
2023-01-23T06:36:34.981Z,99333.69
2023-01-23T06:41:36.826Z,99351.28
2023-01-23T06:46:38.903Z,99357.06
2023-01-23T06:51:41.111Z,99350.94
2023-01-23T06:56:42.715Z,99363.06
2023-01-23T07:01:44.386Z,99364.38
2023-01-23T07:06:46.126Z,99362.34
2023-01-23T07:11:47.729Z,99371.78
2023-01-23T07:16:50.060Z,99385.63
2023-01-23T07:21:51.695Z,99285.88
2023-01-23T07:26:53.589Z,99367.59
2023-01-23T07:31:55.339Z,99366.09
2023-01-23T07:36:57.249Z,99350.16
2023-01-23T07:41:59.328Z,99301.09
2023-01-23T07:47:00.985Z,99293.22
2023-01-23T07:52:03.829Z,99220.38
2023-01-23T07:57:05.412Z,99357.44
2023-01-23T08:02:10.390Z,99350.16
2023-01-23T08:07:12.667Z,99297.25
2023-01-23T08:12:14.549Z,99338.94
2023-01-23T08:17:16.200Z,99316.34
2023-01-23T08:22:17.941Z,99345.50
2023-01-23T08:27:19.590Z,99346.66
2023-01-23T08:32:21.403Z,99347.69
2023-01-23T08:37:23.177Z,99343.91
2023-01-23T08:42:25.044Z,99337.28
2023-01-23T08:47:27.565Z,99338.19
2023-01-23T08:52:29.769Z,99345.81
2023-01-23T08:57:31.657Z,99356.69
2023-01-23T09:02:33.720Z,99360.72
2023-01-23T09:07:38.011Z,99376.53
2023-01-23T09:12:42.718Z,99370.09
2023-01-23T09:17:44.664Z,99384.66
2023-01-23T09:22:46.334Z,99357.59
2023-01-23T09:27:47.935Z,99362.28
2023-01-23T09:32:49.516Z,99352.16
2023-01-23T09:38:00.017Z,99361.25
2023-01-23T09:43:25.681Z,99366.53
2023-01-23T09:48:29.979Z,99366.44
2023-01-23T09:53:39.916Z,99355.06
2023-01-23T09:58:48.919Z,99259.22
2023-01-23T10:03:50.795Z,99381.34
2023-01-23T10:09:29.925Z,99377.69
2023-01-23T10:14:46.660Z,99363.75
2023-01-23T10:19:51.224Z,99369.16
2023-01-23T10:24:56.503Z,99341.03
2023-01-23T10:30:03.537Z,99354.72
2023-01-23T10:35:13.856Z,99354.31
2023-01-23T10:40:15.508Z,99351.00
2023-01-23T10:45:21.258Z,99348.84
2023-01-23T10:50:40.259Z,99349.88
2023-01-23T10:55:45.604Z,99344.47
2023-01-23T11:00:47.562Z,99326.16
2023-01-23T11:05:53.592Z,99329.19
2023-01-23T11:11:15.726Z,99297.75
2023-01-23T11:16:23.825Z,99322.38
2023-01-23T11:21:32.667Z,99315.41
2023-01-23T11:26:36.072Z,99291.06
2023-01-23T11:31:37.843Z,99253.13
2023-01-23T11:36:59.773Z,99312.63
2023-01-23T11:42:02.681Z,99320.38
2023-01-23T11:47:36.611Z,99315.81
2023-01-23T11:53:21.191Z,99294.41
2023-01-23T11:58:49.563Z,99294.78
2023-01-23T12:04:19.669Z,99287.38
2023-01-23T12:09:22.132Z,99273.16
2023-01-23T12:14:35.727Z,99285.78
2023-01-23T12:19:57.052Z,99272.28
2023-01-23T12:25:20.340Z,99278.31
2023-01-23T12:30:28.070Z,99290.00
2023-01-23T12:35:54.467Z,99286.56
2023-01-23T12:41:36.765Z,99178.53
2023-01-23T12:47:10.385Z,99296.69
2023-01-23T12:52:20.038Z,99297.03
2023-01-23T12:57:52.530Z,99176.28
2023-01-23T13:03:37.487Z,99277.13
2023-01-23T13:09:18.482Z,99263.13
2023-01-23T13:14:43.422Z,99284.88
2023-01-23T13:20:13.258Z,99275.44
2023-01-23T13:25:19.379Z,99251.13
2023-01-23T13:30:27.000Z,99264.84
2023-01-23T13:35:44.738Z,99255.19
2023-01-23T13:41:11.395Z,99263.13
2023-01-23T13:46:25.436Z,99277.63
2023-01-23T14:23:59.668Z,99294.72
2023-01-23T14:29:24.618Z,99259.97
2023-01-23T14:34:27.040Z,99275.94
2023-01-23T14:39:31.373Z,99279.41
2023-01-23T14:44:39.066Z,99283.72
2023-01-23T14:49:40.797Z,99259.28
2023-01-23T14:54:53.375Z,99271.78
2023-01-23T14:59:57.706Z,99267.13
2023-01-23T15:05:20.073Z,99282.78
2023-01-23T15:10:43.509Z,99290.19
2023-01-23T15:15:50.809Z,99280.78
2023-01-23T15:20:57.347Z,99281.13
2023-01-23T15:26:12.859Z,99268.94
2023-01-23T15:31:34.491Z,99287.94
2023-01-23T15:36:36.388Z,99271.38
2023-01-23T15:41:47.801Z,99296.09
2023-01-23T15:46:49.754Z,99296.81
2023-01-23T15:51:51.521Z,99277.03
2023-01-23T15:57:05.363Z,99285.09
2023-01-23T16:02:30.124Z,99311.81
2023-01-23T16:07:52.673Z,99282.41
2023-01-23T16:12:57.386Z,99328.25
2023-01-23T16:18:00.075Z,99327.94
2023-01-23T16:23:15.117Z,99314.81
2023-01-23T16:28:23.935Z,99323.59
2023-01-23T16:33:26.648Z,99311.22
2023-01-23T16:38:29.270Z,99336.81
2023-01-23T16:43:31.590Z,99305.88
2023-01-23T16:48:33.463Z,99335.75
2023-01-23T16:53:38.169Z,99303.94
2023-01-23T16:58:41.372Z,99311.69
2023-01-23T17:03:44.303Z,99334.13
2023-01-23T17:08:46.124Z,99302.91
2023-01-23T17:13:49.013Z,99334.34
2023-01-23T17:18:51.589Z,99332.56
2023-01-23T17:23:53.652Z,99349.84
2023-01-23T17:28:55.331Z,99311.78
2023-01-23T17:33:56.929Z,99353.56
2023-01-23T17:38:59.791Z,99351.69
2023-01-23T17:44:01.488Z,99264.38
2023-01-23T17:49:04.425Z,99346.31
2023-01-23T17:54:18.596Z,99348.94
2023-01-23T17:59:20.270Z,99345.28
2023-01-23T18:04:23.165Z,99349.78
2023-01-23T18:09:24.826Z,99255.19
2023-01-23T18:15:01.269Z,99347.53
2023-01-23T18:20:04.078Z,99332.41
2023-01-23T18:25:06.290Z,99339.63
2023-01-23T18:30:11.279Z,99349.78
2023-01-23T18:35:37.118Z,99344.59
2023-01-23T18:41:20.124Z,99358.53
2023-01-23T18:46:24.181Z,99320.53
2023-01-23T18:51:54.701Z,99364.41
2023-01-23T18:57:16.541Z,99360.00
2023-01-23T19:03:07.618Z,99367.25
2023-01-23T19:08:31.049Z,99354.22
2023-01-23T19:13:44.713Z,99351.75
2023-01-23T19:19:01.763Z,99355.03
2023-01-23T19:24:11.308Z,99376.00
2023-01-23T19:29:21.967Z,99367.34
2023-01-23T19:34:24.499Z,99364.66
2023-01-23T19:39:26.853Z,99334.72
2023-01-23T19:44:32.173Z,99333.69
2023-01-23T19:49:33.757Z,99369.22
2023-01-23T19:54:36.555Z,99372.78
2023-01-23T19:59:38.163Z,99325.72
2023-01-23T20:04:39.739Z,99374.13
2023-01-23T20:09:41.413Z,99371.59
2023-01-23T20:14:42.956Z,99368.91
2023-01-23T20:19:44.550Z,99357.56
2023-01-23T20:24:46.344Z,99372.28
2023-01-23T20:29:53.728Z,99379.47
2023-01-23T20:34:55.357Z,99388.03
2023-01-23T20:39:56.989Z,99384.56
2023-01-23T20:44:58.555Z,99403.00
2023-01-23T20:50:00.912Z,99414.00
2023-01-23T20:55:03.080Z,99368.81
2023-01-23T21:00:05.193Z,99418.34
2023-01-23T21:05:07.293Z,99423.78
2023-01-23T21:10:09.377Z,99411.66
2023-01-23T21:15:11.525Z,99400.63
